sensor_id;sensor_type;location;lat;lon;timestamp;P1;durP1;ratioP1;P2;durP2;ratioP2
39454;SDS011;25155;41.890;23.446;2023-07-31T00:00:21;6.30;;;5.03;;
39454;SDS011;25155;41.890;23.446;2023-07-31T00:02:48;6.15;;;4.60;;
39454;SDS011;25155;41.890;23.446;2023-07-31T00:05:15;6.22;;;5.20;;
39454;SDS011;25155;41.890;23.446;2023-07-31T00:07:42;5.70;;;4.50;;
39454;SDS011;25155;41.890;23.446;2023-07-31T00:10:09;6.30;;;4.78;;
39454;SDS011;25155;41.890;23.446;2023-07-31T00:12:37;6.57;;;4.60;;
39454;SDS011;25155;41.890;23.446;2023-07-31T00:15:05;5.65;;;4.68;;
39454;SDS011;25155;41.890;23.446;2023-07-31T00:17:34;5.47;;;4.28;;
39454;SDS011;25155;41.890;23.446;2023-07-31T00:20:01;5.82;;;4.30;;
39454;SDS011;25155;41.890;23.446;2023-07-31T00:22:29;4.88;;;3.88;;
39454;SDS011;25155;41.890;23.446;2023-07-31T00:24:56;5.97;;;4.30;;
39454;SDS011;25155;41.890;23.446;2023-07-31T00:27:25;5.30;;;4.28;;
39454;SDS011;25155;41.890;23.446;2023-07-31T00:29:52;5.97;;;4.38;;
39454;SDS011;25155;41.890;23.446;2023-07-31T00:32:19;5.70;;;4.00;;
39454;SDS011;25155;41.890;23.446;2023-07-31T00:34:47;5.45;;;4.05;;
39454;SDS011;25155;41.890;23.446;2023-07-31T00:37:15;6.82;;;4.80;;
39454;SDS011;25155;41.890;23.446;2023-07-31T00:39:42;4.75;;;3.92;;
39454;SDS011;25155;41.890;23.446;2023-07-31T00:42:09;5.78;;;4.18;;
39454;SDS011;25155;41.890;23.446;2023-07-31T00:44:36;5.25;;;4.20;;
39454;SDS011;25155;41.890;23.446;2023-07-31T00:47:04;5.13;;;3.70;;
39454;SDS011;25155;41.890;23.446;2023-07-31T00:49:32;4.60;;;3.50;;
39454;SDS011;25155;41.890;23.446;2023-07-31T00:52:00;4.30;;;3.40;;
39454;SDS011;25155;41.890;23.446;2023-07-31T00:54:28;5.63;;;4.30;;
39454;SDS011;25155;41.890;23.446;2023-07-31T00:56:55;5.38;;;4.20;;
39454;SDS011;25155;41.890;23.446;2023-07-31T00:59:24;5.75;;;4.68;;
39454;SDS011;25155;41.890;23.446;2023-07-31T01:01:51;6.13;;;4.90;;
39454;SDS011;25155;41.890;23.446;2023-07-31T01:04:18;5.22;;;4.45;;
39454;SDS011;25155;41.890;23.446;2023-07-31T01:06:48;5.03;;;3.78;;
39454;SDS011;25155;41.890;23.446;2023-07-31T01:09:27;4.78;;;3.90;;
39454;SDS011;25155;41.890;23.446;2023-07-31T01:12:01;5.47;;;4.35;;
39454;SDS011;25155;41.890;23.446;2023-07-31T01:14:30;4.90;;;3.67;;
39454;SDS011;25155;41.890;23.446;2023-07-31T01:16:57;4.57;;;3.42;;
39454;SDS011;25155;41.890;23.446;2023-07-31T01:19:25;5.57;;;4.50;;
39454;SDS011;25155;41.890;23.446;2023-07-31T01:22:07;5.88;;;4.55;;
39454;SDS011;25155;41.890;23.446;2023-07-31T01:24:54;5.28;;;4.28;;
39454;SDS011;25155;41.890;23.446;2023-07-31T01:27:30;4.00;;;3.40;;
39454;SDS011;25155;41.890;23.446;2023-07-31T01:30:05;6.05;;;4.80;;
39454;SDS011;25155;41.890;23.446;2023-07-31T01:32:40;6.57;;;5.10;;
39454;SDS011;25155;41.890;23.446;2023-07-31T01:35:08;5.57;;;4.50;;
39454;SDS011;25155;41.890;23.446;2023-07-31T01:37:36;5.95;;;4.60;;
39454;SDS011;25155;41.890;23.446;2023-07-31T01:40:05;5.45;;;4.35;;
39454;SDS011;25155;41.890;23.446;2023-07-31T01:42:34;5.78;;;3.85;;
39454;SDS011;25155;41.890;23.446;2023-07-31T01:45:01;6.95;;;3.45;;
39454;SDS011;25155;41.890;23.446;2023-07-31T01:47:29;5.63;;;3.83;;
39454;SDS011;25155;41.890;23.446;2023-07-31T01:49:56;4.20;;;3.30;;
39454;SDS011;25155;41.890;23.446;2023-07-31T01:52:23;6.88;;;4.28;;
39454;SDS011;25155;41.890;23.446;2023-07-31T01:54:50;6.10;;;4.07;;
39454;SDS011;25155;41.890;23.446;2023-07-31T01:57:17;5.05;;;3.70;;
39454;SDS011;25155;41.890;23.446;2023-07-31T01:59:45;4.85;;;3.53;;
39454;SDS011;25155;41.890;23.446;2023-07-31T02:02:13;5.70;;;3.47;;
39454;SDS011;25155;41.890;23.446;2023-07-31T02:04:40;5.03;;;3.13;;
39454;SDS011;25155;41.890;23.446;2023-07-31T02:07:07;4.60;;;3.25;;
39454;SDS011;25155;41.890;23.446;2023-07-31T02:09:34;4.68;;;3.20;;
39454;SDS011;25155;41.890;23.446;2023-07-31T02:12:01;5.20;;;3.70;;
39454;SDS011;25155;41.890;23.446;2023-07-31T02:14:28;5.40;;;4.30;;
39454;SDS011;25155;41.890;23.446;2023-07-31T02:16:57;5.18;;;4.47;;
39454;SDS011;25155;41.890;23.446;2023-07-31T02:19:24;7.20;;;5.78;;
39454;SDS011;25155;41.890;23.446;2023-07-31T02:21:51;7.38;;;5.38;;
39454;SDS011;25155;41.890;23.446;2023-07-31T02:24:18;6.20;;;4.70;;
39454;SDS011;25155;41.890;23.446;2023-07-31T02:26:45;6.03;;;5.28;;
39454;SDS011;25155;41.890;23.446;2023-07-31T02:29:12;8.85;;;6.97;;
39454;SDS011;25155;41.890;23.446;2023-07-31T02:31:39;7.00;;;5.40;;
39454;SDS011;25155;41.890;23.446;2023-07-31T02:34:07;6.15;;;5.28;;
39454;SDS011;25155;41.890;23.446;2023-07-31T02:36:35;6.10;;;5.07;;
39454;SDS011;25155;41.890;23.446;2023-07-31T02:39:02;6.68;;;4.53;;
39454;SDS011;25155;41.890;23.446;2023-07-31T02:41:29;6.15;;;5.00;;
39454;SDS011;25155;41.890;23.446;2023-07-31T02:43:56;5.35;;;4.50;;
39454;SDS011;25155;41.890;23.446;2023-07-31T02:46:23;5.28;;;4.32;;
39454;SDS011;25155;41.890;23.446;2023-07-31T02:48:51;6.93;;;5.85;;
39454;SDS011;25155;41.890;23.446;2023-07-31T02:51:19;6.82;;;5.78;;
39454;SDS011;25155;41.890;23.446;2023-07-31T02:53:47;6.70;;;5.45;;
39454;SDS011;25155;41.890;23.446;2023-07-31T02:56:15;6.45;;;5.03;;
39454;SDS011;25155;41.890;23.446;2023-07-31T02:58:42;7.07;;;5.40;;
39454;SDS011;25155;41.890;23.446;2023-07-31T03:01:09;6.72;;;5.55;;
39454;SDS011;25155;41.890;23.446;2023-07-31T03:03:36;6.55;;;5.22;;
39454;SDS011;25155;41.890;23.446;2023-07-31T03:06:03;4.95;;;4.30;;
39454;SDS011;25155;41.890;23.446;2023-07-31T03:08:31;5.43;;;4.43;;
39454;SDS011;25155;41.890;23.446;2023-07-31T03:10:59;5.53;;;4.80;;
39454;SDS011;25155;41.890;23.446;2023-07-31T03:13:26;6.43;;;5.47;;
39454;SDS011;25155;41.890;23.446;2023-07-31T03:15:53;5.78;;;4.72;;
39454;SDS011;25155;41.890;23.446;2023-07-31T03:18:20;5.38;;;4.25;;
39454;SDS011;25155;41.890;23.446;2023-07-31T03:20:47;5.72;;;5.05;;
39454;SDS011;25155;41.890;23.446;2023-07-31T03:23:14;6.28;;;5.10;;
39454;SDS011;25155;41.890;23.446;2023-07-31T03:25:52;4.88;;;4.13;;
39454;SDS011;25155;41.890;23.446;2023-07-31T03:28:22;5.10;;;4.07;;
39454;SDS011;25155;41.890;23.446;2023-07-31T03:30:50;6.15;;;5.28;;
39454;SDS011;25155;41.890;23.446;2023-07-31T03:33:17;7.32;;;5.72;;
39454;SDS011;25155;41.890;23.446;2023-07-31T03:35:44;6.53;;;5.65;;
39454;SDS011;25155;41.890;23.446;2023-07-31T03:38:12;6.65;;;4.93;;
39454;SDS011;25155;41.890;23.446;2023-07-31T03:40:39;5.40;;;4.63;;
39454;SDS011;25155;41.890;23.446;2023-07-31T03:43:07;4.30;;;3.70;;
39454;SDS011;25155;41.890;23.446;2023-07-31T03:45:34;4.32;;;3.40;;
39454;SDS011;25155;41.890;23.446;2023-07-31T03:48:02;4.60;;;3.50;;
39454;SDS011;25155;41.890;23.446;2023-07-31T03:50:30;3.90;;;2.90;;
39454;SDS011;25155;41.890;23.446;2023-07-31T03:52:57;6.18;;;4.50;;
39454;SDS011;25155;41.890;23.446;2023-07-31T03:55:25;4.88;;;4.03;;
39454;SDS011;25155;41.890;23.446;2023-07-31T03:57:52;5.90;;;4.55;;
39454;SDS011;25155;41.890;23.446;2023-07-31T04:00:20;6.45;;;5.35;;
39454;SDS011;25155;41.890;23.446;2023-07-31T04:02:48;7.68;;;6.05;;
39454;SDS011;25155;41.890;23.446;2023-07-31T04:05:15;6.20;;;5.32;;
39454;SDS011;25155;41.890;23.446;2023-07-31T04:07:42;6.03;;;5.20;;
39454;SDS011;25155;41.890;23.446;2023-07-31T04:10:09;6.57;;;5.32;;
39454;SDS011;25155;41.890;23.446;2023-07-31T04:12:36;5.72;;;4.57;;
39454;SDS011;25155;41.890;23.446;2023-07-31T04:15:04;5.65;;;5.05;;
39454;SDS011;25155;41.890;23.446;2023-07-31T04:17:33;5.60;;;4.40;;
39454;SDS011;25155;41.890;23.446;2023-07-31T04:20:00;5.20;;;3.92;;
39454;SDS011;25155;41.890;23.446;2023-07-31T04:22:27;5.72;;;4.03;;
39454;SDS011;25155;41.890;23.446;2023-07-31T04:24:54;4.85;;;3.85;;
39454;SDS011;25155;41.890;23.446;2023-07-31T04:27:22;5.90;;;5.22;;
39454;SDS011;25155;41.890;23.446;2023-07-31T04:29:49;6.10;;;5.22;;
39454;SDS011;25155;41.890;23.446;2023-07-31T04:32:16;5.10;;;4.40;;
39454;SDS011;25155;41.890;23.446;2023-07-31T04:34:46;5.25;;;4.25;;
39454;SDS011;25155;41.890;23.446;2023-07-31T04:37:13;7.22;;;5.35;;
39454;SDS011;25155;41.890;23.446;2023-07-31T04:39:40;8.13;;;7.32;;
39454;SDS011;25155;41.890;23.446;2023-07-31T04:42:07;6.72;;;6.03;;
39454;SDS011;25155;41.890;23.446;2023-07-31T04:44:34;5.50;;;4.57;;
39454;SDS011;25155;41.890;23.446;2023-07-31T04:47:02;5.00;;;4.30;;
39454;SDS011;25155;41.890;23.446;2023-07-31T04:49:29;5.65;;;4.65;;
39454;SDS011;25155;41.890;23.446;2023-07-31T04:51:58;5.63;;;4.35;;
39454;SDS011;25155;41.890;23.446;2023-07-31T04:54:25;5.97;;;4.88;;
39454;SDS011;25155;41.890;23.446;2023-07-31T04:56:52;7.05;;;4.72;;
39454;SDS011;25155;41.890;23.446;2023-07-31T04:59:19;5.80;;;4.85;;
39454;SDS011;25155;41.890;23.446;2023-07-31T05:01:46;5.53;;;4.82;;
39454;SDS011;25155;41.890;23.446;2023-07-31T05:04:13;5.57;;;4.70;;
39454;SDS011;25155;41.890;23.446;2023-07-31T05:06:41;5.55;;;4.40;;
39454;SDS011;25155;41.890;23.446;2023-07-31T05:09:10;6.53;;;5.78;;
39454;SDS011;25155;41.890;23.446;2023-07-31T05:11:37;8.18;;;5.35;;
39454;SDS011;25155;41.890;23.446;2023-07-31T05:14:05;6.40;;;5.30;;
39454;SDS011;25155;41.890;23.446;2023-07-31T05:16:33;6.10;;;5.22;;
39454;SDS011;25155;41.890;23.446;2023-07-31T05:19:00;7.22;;;5.90;;
39454;SDS011;25155;41.890;23.446;2023-07-31T05:21:27;8.02;;;6.88;;
39454;SDS011;25155;41.890;23.446;2023-07-31T05:23:54;7.03;;;6.28;;
39454;SDS011;25155;41.890;23.446;2023-07-31T05:26:22;7.00;;;5.75;;
39454;SDS011;25155;41.890;23.446;2023-07-31T05:28:49;7.72;;;6.53;;
39454;SDS011;25155;41.890;23.446;2023-07-31T05:31:17;7.22;;;6.05;;
39454;SDS011;25155;41.890;23.446;2023-07-31T05:33:44;7.10;;;6.40;;
39454;SDS011;25155;41.890;23.446;2023-07-31T05:36:11;9.52;;;7.80;;
39454;SDS011;25155;41.890;23.446;2023-07-31T05:38:38;8.75;;;7.57;;
39454;SDS011;25155;41.890;23.446;2023-07-31T05:41:05;7.28;;;6.55;;
39454;SDS011;25155;41.890;23.446;2023-07-31T05:43:34;8.73;;;7.20;;
39454;SDS011;25155;41.890;23.446;2023-07-31T05:46:01;7.90;;;6.95;;
39454;SDS011;25155;41.890;23.446;2023-07-31T05:48:28;8.10;;;6.40;;
39454;SDS011;25155;41.890;23.446;2023-07-31T05:50:55;7.70;;;6.32;;
39454;SDS011;25155;41.890;23.446;2023-07-31T05:53:23;7.13;;;6.10;;
39454;SDS011;25155;41.890;23.446;2023-07-31T05:55:50;8.20;;;7.07;;
39454;SDS011;25155;41.890;23.446;2023-07-31T05:58:17;6.57;;;5.40;;
39454;SDS011;25155;41.890;23.446;2023-07-31T06:00:45;8.23;;;6.50;;
39454;SDS011;25155;41.890;23.446;2023-07-31T06:03:13;8.25;;;6.97;;
39454;SDS011;25155;41.890;23.446;2023-07-31T06:05:40;7.65;;;6.85;;
39454;SDS011;25155;41.890;23.446;2023-07-31T06:08:07;7.75;;;6.80;;
39454;SDS011;25155;41.890;23.446;2023-07-31T06:10:34;7.07;;;6.15;;
39454;SDS011;25155;41.890;23.446;2023-07-31T06:13:01;6.80;;;6.07;;
39454;SDS011;25155;41.890;23.446;2023-07-31T06:15:28;8.25;;;6.60;;
39454;SDS011;25155;41.890;23.446;2023-07-31T06:17:56;13.13;;;7.30;;
39454;SDS011;25155;41.890;23.446;2023-07-31T06:20:24;6.90;;;6.05;;
39454;SDS011;25155;41.890;23.446;2023-07-31T06:22:51;7.45;;;6.07;;
39454;SDS011;25155;41.890;23.446;2023-07-31T06:25:18;7.00;;;6.30;;
39454;SDS011;25155;41.890;23.446;2023-07-31T06:27:45;7.00;;;6.20;;
39454;SDS011;25155;41.890;23.446;2023-07-31T06:30:13;8.07;;;6.93;;
39454;SDS011;25155;41.890;23.446;2023-07-31T06:32:40;9.27;;;7.70;;
39454;SDS011;25155;41.890;23.446;2023-07-31T06:35:08;9.32;;;7.30;;
39454;SDS011;25155;41.890;23.446;2023-07-31T06:37:36;8.90;;;7.82;;
39454;SDS011;25155;41.890;23.446;2023-07-31T06:40:05;8.45;;;7.50;;
39454;SDS011;25155;41.890;23.446;2023-07-31T06:42:34;10.32;;;7.53;;
39454;SDS011;25155;41.890;23.446;2023-07-31T06:45:01;8.23;;;7.07;;
39454;SDS011;25155;41.890;23.446;2023-07-31T06:47:28;8.00;;;7.15;;
39454;SDS011;25155;41.890;23.446;2023-07-31T06:49:55;11.00;;;8.30;;
39454;SDS011;25155;41.890;23.446;2023-07-31T06:52:24;9.10;;;8.02;;
39454;SDS011;25155;41.890;23.446;2023-07-31T06:55:00;10.75;;;7.78;;
39454;SDS011;25155;41.890;23.446;2023-07-31T06:57:29;7.30;;;6.50;;
39454;SDS011;25155;41.890;23.446;2023-07-31T06:59:57;9.52;;;8.52;;
39454;SDS011;25155;41.890;23.446;2023-07-31T07:02:24;8.25;;;7.28;;
39454;SDS011;25155;41.890;23.446;2023-07-31T07:04:51;8.65;;;7.75;;
39454;SDS011;25155;41.890;23.446;2023-07-31T07:07:18;8.27;;;7.43;;
39454;SDS011;25155;41.890;23.446;2023-07-31T07:09:46;7.35;;;6.65;;
39454;SDS011;25155;41.890;23.446;2023-07-31T07:12:14;8.10;;;7.30;;
39454;SDS011;25155;41.890;23.446;2023-07-31T07:14:41;8.00;;;7.20;;
39454;SDS011;25155;41.890;23.446;2023-07-31T07:17:08;7.20;;;5.90;;
39454;SDS011;25155;41.890;23.446;2023-07-31T07:19:35;7.18;;;6.47;;
39454;SDS011;25155;41.890;23.446;2023-07-31T07:22:02;7.95;;;7.15;;
39454;SDS011;25155;41.890;23.446;2023-07-31T07:24:29;6.85;;;6.15;;
39454;SDS011;25155;41.890;23.446;2023-07-31T07:26:58;12.40;;;11.20;;
39454;SDS011;25155;41.890;23.446;2023-07-31T07:29:25;14.13;;;12.82;;
39454;SDS011;25155;41.890;23.446;2023-07-31T07:31:52;15.45;;;13.85;;
39454;SDS011;25155;41.890;23.446;2023-07-31T07:34:19;9.98;;;8.98;;
39454;SDS011;25155;41.890;23.446;2023-07-31T07:36:49;13.60;;;12.20;;
39454;SDS011;25155;41.890;23.446;2023-07-31T07:39:16;14.05;;;12.65;;
39454;SDS011;25155;41.890;23.446;2023-07-31T07:41:43;13.25;;;11.95;;
39454;SDS011;25155;41.890;23.446;2023-07-31T07:44:12;13.10;;;11.60;;
39454;SDS011;25155;41.890;23.446;2023-07-31T07:46:39;15.10;;;11.50;;
39454;SDS011;25155;41.890;23.446;2023-07-31T07:49:07;14.48;;;13.07;;
39454;SDS011;25155;41.890;23.446;2023-07-31T07:51:34;14.63;;;12.25;;
39454;SDS011;25155;41.890;23.446;2023-07-31T07:54:02;12.75;;;11.50;;
39454;SDS011;25155;41.890;23.446;2023-07-31T07:56:29;13.52;;;12.15;;
39454;SDS011;25155;41.890;23.446;2023-07-31T07:58:56;12.32;;;11.13;;
39454;SDS011;25155;41.890;23.446;2023-07-31T08:01:24;13.02;;;11.82;;
39454;SDS011;25155;41.890;23.446;2023-07-31T08:03:52;12.43;;;11.23;;
39454;SDS011;25155;41.890;23.446;2023-07-31T08:06:20;12.05;;;10.50;;
39454;SDS011;25155;41.890;23.446;2023-07-31T08:08:48;12.43;;;11.13;;
39454;SDS011;25155;41.890;23.446;2023-07-31T08:11:15;11.85;;;10.65;;
39454;SDS011;25155;41.890;23.446;2023-07-31T08:13:42;11.70;;;10.50;;
39454;SDS011;25155;41.890;23.446;2023-07-31T08:16:09;12.20;;;11.00;;
39454;SDS011;25155;41.890;23.446;2023-07-31T08:18:38;10.43;;;9.43;;
39454;SDS011;25155;41.890;23.446;2023-07-31T08:21:05;11.38;;;10.15;;
39454;SDS011;25155;41.890;23.446;2023-07-31T08:23:33;11.00;;;9.88;;
39454;SDS011;25155;41.890;23.446;2023-07-31T08:26:00;11.45;;;10.35;;
39454;SDS011;25155;41.890;23.446;2023-07-31T08:28:27;11.73;;;10.43;;
39454;SDS011;25155;41.890;23.446;2023-07-31T08:30:54;11.48;;;10.38;;
39454;SDS011;25155;41.890;23.446;2023-07-31T08:33:21;10.70;;;9.70;;
39454;SDS011;25155;41.890;23.446;2023-07-31T08:35:50;11.32;;;10.13;;
39454;SDS011;25155;41.890;23.446;2023-07-31T08:38:17;10.38;;;9.38;;
39454;SDS011;25155;41.890;23.446;2023-07-31T08:40:44;12.20;;;10.18;;
39454;SDS011;25155;41.890;23.446;2023-07-31T08:43:12;11.43;;;10.32;;
39454;SDS011;25155;41.890;23.446;2023-07-31T08:45:40;9.90;;;9.00;;
39454;SDS011;25155;41.890;23.446;2023-07-31T08:48:08;10.93;;;9.85;;
39454;SDS011;25155;41.890;23.446;2023-07-31T08:50:38;11.32;;;10.15;;
39454;SDS011;25155;41.890;23.446;2023-07-31T08:53:06;11.73;;;10.63;;
39454;SDS011;25155;41.890;23.446;2023-07-31T08:55:33;10.82;;;9.77;;
39454;SDS011;25155;41.890;23.446;2023-07-31T08:58:02;10.63;;;9.52;;
39454;SDS011;25155;41.890;23.446;2023-07-31T09:00:30;10.95;;;9.80;;
39454;SDS011;25155;41.890;23.446;2023-07-31T09:02:59;10.52;;;9.52;;
39454;SDS011;25155;41.890;23.446;2023-07-31T09:05:29;10.80;;;9.50;;
39454;SDS011;25155;41.890;23.446;2023-07-31T09:07:57;12.05;;;9.43;;
39454;SDS011;25155;41.890;23.446;2023-07-31T09:10:26;9.90;;;8.90;;
39454;SDS011;25155;41.890;23.446;2023-07-31T09:12:53;10.57;;;9.57;;
39454;SDS011;25155;41.890;23.446;2023-07-31T09:15:22;10.20;;;9.23;;
39454;SDS011;25155;41.890;23.446;2023-07-31T09:17:54;8.90;;;8.00;;
39454;SDS011;25155;41.890;23.446;2023-07-31T09:20:26;9.02;;;8.13;;
39454;SDS011;25155;41.890;23.446;2023-07-31T09:22:53;8.10;;;6.88;;
39454;SDS011;25155;41.890;23.446;2023-07-31T09:25:21;7.43;;;6.72;;
39454;SDS011;25155;41.890;23.446;2023-07-31T09:27:52;8.93;;;6.75;;
39454;SDS011;25155;41.890;23.446;2023-07-31T09:30:21;8.32;;;5.88;;
39454;SDS011;25155;41.890;23.446;2023-07-31T09:32:49;7.03;;;6.00;;
39454;SDS011;25155;41.890;23.446;2023-07-31T09:35:20;5.72;;;5.13;;
39454;SDS011;25155;41.890;23.446;2023-07-31T09:37:49;6.00;;;5.18;;
39454;SDS011;25155;41.890;23.446;2023-07-31T09:40:30;7.28;;;5.20;;
39454;SDS011;25155;41.890;23.446;2023-07-31T09:43:00;7.97;;;4.82;;
39454;SDS011;25155;41.890;23.446;2023-07-31T09:45:29;6.23;;;5.30;;
39454;SDS011;25155;41.890;23.446;2023-07-31T09:48:00;17.67;;;5.50;;
39454;SDS011;25155;41.890;23.446;2023-07-31T09:50:28;7.15;;;5.00;;
39454;SDS011;25155;41.890;23.446;2023-07-31T09:52:56;7.68;;;4.70;;
39454;SDS011;25155;41.890;23.446;2023-07-31T09:55:23;7.43;;;5.22;;
39454;SDS011;25155;41.890;23.446;2023-07-31T09:57:50;6.45;;;4.57;;
39454;SDS011;25155;41.890;23.446;2023-07-31T10:00:22;5.38;;;4.43;;
39454;SDS011;25155;41.890;23.446;2023-07-31T10:02:53;6.18;;;4.70;;
39454;SDS011;25155;41.890;23.446;2023-07-31T10:05:20;5.13;;;4.38;;
39454;SDS011;25155;41.890;23.446;2023-07-31T10:07:50;5.95;;;4.55;;
39454;SDS011;25155;41.890;23.446;2023-07-31T10:10:21;5.63;;;3.70;;
39454;SDS011;25155;41.890;23.446;2023-07-31T10:12:48;7.00;;;3.90;;
39454;SDS011;25155;41.890;23.446;2023-07-31T10:15:16;4.90;;;3.90;;
39454;SDS011;25155;41.890;23.446;2023-07-31T10:17:45;6.35;;;3.95;;
39454;SDS011;25155;41.890;23.446;2023-07-31T10:20:14;8.55;;;4.40;;
39454;SDS011;25155;41.890;23.446;2023-07-31T10:22:41;4.97;;;4.10;;
39454;SDS011;25155;41.890;23.446;2023-07-31T10:25:09;5.63;;;4.18;;
39454;SDS011;25155;41.890;23.446;2023-07-31T10:27:38;4.82;;;3.78;;
39454;SDS011;25155;41.890;23.446;2023-07-31T10:30:07;5.72;;;3.90;;
39454;SDS011;25155;41.890;23.446;2023-07-31T10:32:36;5.17;;;4.03;;
39454;SDS011;25155;41.890;23.446;2023-07-31T10:35:06;6.03;;;3.67;;
39454;SDS011;25155;41.890;23.446;2023-07-31T10:37:36;4.45;;;3.50;;
39454;SDS011;25155;41.890;23.446;2023-07-31T10:40:05;4.60;;;3.50;;
39454;SDS011;25155;41.890;23.446;2023-07-31T10:42:38;4.82;;;3.90;;
39454;SDS011;25155;41.890;23.446;2023-07-31T10:45:13;5.72;;;3.80;;
39454;SDS011;25155;41.890;23.446;2023-07-31T10:47:51;6.07;;;3.67;;
39454;SDS011;25155;41.890;23.446;2023-07-31T10:50:30;4.40;;;3.50;;
39454;SDS011;25155;41.890;23.446;2023-07-31T10:52:59;5.35;;;3.53;;
39454;SDS011;25155;41.890;23.446;2023-07-31T10:55:28;6.07;;;3.90;;
39454;SDS011;25155;41.890;23.446;2023-07-31T10:57:57;4.28;;;3.55;;
39454;SDS011;25155;41.890;23.446;2023-07-31T11:00:31;22.70;;;4.65;;
39454;SDS011;25155;41.890;23.446;2023-07-31T11:02:59;5.88;;;3.50;;
39454;SDS011;25155;41.890;23.446;2023-07-31T11:05:48;4.95;;;3.28;;
39454;SDS011;25155;41.890;23.446;2023-07-31T11:08:19;4.68;;;3.38;;
39454;SDS011;25155;41.890;23.446;2023-07-31T11:10:49;5.10;;;3.80;;
39454;SDS011;25155;41.890;23.446;2023-07-31T11:13:20;4.78;;;3.30;;
39454;SDS011;25155;41.890;23.446;2023-07-31T11:15:47;5.63;;;3.38;;
39454;SDS011;25155;41.890;23.446;2023-07-31T11:18:14;5.57;;;3.20;;
39454;SDS011;25155;41.890;23.446;2023-07-31T11:20:42;6.43;;;3.65;;
39454;SDS011;25155;41.890;23.446;2023-07-31T11:23:10;4.15;;;3.40;;
39454;SDS011;25155;41.890;23.446;2023-07-31T11:25:38;5.88;;;3.50;;
39454;SDS011;25155;41.890;23.446;2023-07-31T11:28:08;4.63;;;3.40;;
39454;SDS011;25155;41.890;23.446;2023-07-31T11:30:37;8.70;;;3.40;;
39454;SDS011;25155;41.890;23.446;2023-07-31T11:33:06;4.93;;;3.30;;
39454;SDS011;25155;41.890;23.446;2023-07-31T11:35:35;4.18;;;3.33;;
39454;SDS011;25155;41.890;23.446;2023-07-31T11:38:09;4.72;;;3.65;;
39454;SDS011;25155;41.890;23.446;2023-07-31T11:40:41;4.78;;;3.00;;
39454;SDS011;25155;41.890;23.446;2023-07-31T11:43:08;4.35;;;3.13;;
39454;SDS011;25155;41.890;23.446;2023-07-31T11:45:37;4.53;;;2.85;;
39454;SDS011;25155;41.890;23.446;2023-07-31T11:48:06;5.85;;;3.20;;
39454;SDS011;25155;41.890;23.446;2023-07-31T11:50:33;4.75;;;3.13;;
39454;SDS011;25155;41.890;23.446;2023-07-31T11:53:03;5.00;;;2.97;;
39454;SDS011;25155;41.890;23.446;2023-07-31T11:55:36;3.10;;;2.55;;
39454;SDS011;25155;41.890;23.446;2023-07-31T11:58:03;3.95;;;2.83;;
39454;SDS011;25155;41.890;23.446;2023-07-31T12:00:31;6.15;;;2.80;;
39454;SDS011;25155;41.890;23.446;2023-07-31T12:02:58;4.93;;;2.80;;
39454;SDS011;25155;41.890;23.446;2023-07-31T12:05:26;6.82;;;2.90;;
39454;SDS011;25155;41.890;23.446;2023-07-31T12:07:54;4.95;;;2.80;;
39454;SDS011;25155;41.890;23.446;2023-07-31T12:10:22;4.22;;;2.90;;
39454;SDS011;25155;41.890;23.446;2023-07-31T12:13:02;4.28;;;2.83;;
39454;SDS011;25155;41.890;23.446;2023-07-31T12:15:32;4.93;;;2.72;;
39454;SDS011;25155;41.890;23.446;2023-07-31T12:18:10;4.53;;;2.70;;
39454;SDS011;25155;41.890;23.446;2023-07-31T12:20:42;4.22;;;2.90;;
39454;SDS011;25155;41.890;23.446;2023-07-31T12:23:16;4.00;;;2.65;;
39454;SDS011;25155;41.890;23.446;2023-07-31T12:25:59;12.85;;;2.90;;
39454;SDS011;25155;41.890;23.446;2023-07-31T12:28:29;5.05;;;2.80;;
39454;SDS011;25155;41.890;23.446;2023-07-31T12:30:57;6.90;;;6.13;;
39454;SDS011;25155;41.890;23.446;2023-07-31T12:33:30;8.63;;;7.10;;
39454;SDS011;25155;41.890;23.446;2023-07-31T12:35:58;8.48;;;6.65;;
39454;SDS011;25155;41.890;23.446;2023-07-31T12:38:27;7.78;;;6.97;;
39454;SDS011;25155;41.890;23.446;2023-07-31T12:40:54;9.20;;;6.28;;
39454;SDS011;25155;41.890;23.446;2023-07-31T12:43:21;7.10;;;6.20;;
39454;SDS011;25155;41.890;23.446;2023-07-31T12:45:50;7.03;;;5.90;;
39454;SDS011;25155;41.890;23.446;2023-07-31T12:48:17;6.35;;;5.68;;
39454;SDS011;25155;41.890;23.446;2023-07-31T12:50:44;7.03;;;5.88;;
39454;SDS011;25155;41.890;23.446;2023-07-31T12:53:11;6.70;;;6.00;;
39454;SDS011;25155;41.890;23.446;2023-07-31T12:55:38;7.50;;;5.78;;
39454;SDS011;25155;41.890;23.446;2023-07-31T12:58:05;5.70;;;4.43;;
39454;SDS011;25155;41.890;23.446;2023-07-31T13:00:33;5.20;;;4.30;;
39454;SDS011;25155;41.890;23.446;2023-07-31T13:03:01;5.47;;;4.35;;
39454;SDS011;25155;41.890;23.446;2023-07-31T13:05:29;5.78;;;4.80;;
39454;SDS011;25155;41.890;23.446;2023-07-31T13:07:56;5.57;;;4.75;;
39454;SDS011;25155;41.890;23.446;2023-07-31T13:10:23;5.60;;;4.40;;
39454;SDS011;25155;41.890;23.446;2023-07-31T13:12:52;5.38;;;4.88;;
39454;SDS011;25155;41.890;23.446;2023-07-31T13:15:19;6.00;;;5.00;;
39454;SDS011;25155;41.890;23.446;2023-07-31T13:17:46;6.43;;;5.32;;
39454;SDS011;25155;41.890;23.446;2023-07-31T13:20:15;5.50;;;4.57;;
39454;SDS011;25155;41.890;23.446;2023-07-31T13:22:42;4.93;;;4.00;;
39454;SDS011;25155;41.890;23.446;2023-07-31T13:25:09;5.32;;;4.13;;
39454;SDS011;25155;41.890;23.446;2023-07-31T13:27:36;5.40;;;4.18;;
39454;SDS011;25155;41.890;23.446;2023-07-31T13:30:03;5.47;;;4.65;;
39454;SDS011;25155;41.890;23.446;2023-07-31T13:32:31;4.95;;;4.00;;
39454;SDS011;25155;41.890;23.446;2023-07-31T13:34:58;4.85;;;4.00;;
39454;SDS011;25155;41.890;23.446;2023-07-31T13:37:27;5.68;;;4.70;;
39454;SDS011;25155;41.890;23.446;2023-07-31T13:39:54;4.88;;;3.88;;
39454;SDS011;25155;41.890;23.446;2023-07-31T13:42:21;4.90;;;4.00;;
39454;SDS011;25155;41.890;23.446;2023-07-31T13:44:49;18.20;;;4.53;;
39454;SDS011;25155;41.890;23.446;2023-07-31T13:47:16;4.97;;;3.90;;
39454;SDS011;25155;41.890;23.446;2023-07-31T13:49:43;7.60;;;4.63;;
39454;SDS011;25155;41.890;23.446;2023-07-31T13:52:10;5.10;;;4.38;;
39454;SDS011;25155;41.890;23.446;2023-07-31T13:54:38;4.82;;;4.28;;
39454;SDS011;25155;41.890;23.446;2023-07-31T13:57:07;5.50;;;4.20;;
39454;SDS011;25155;41.890;23.446;2023-07-31T13:59:35;4.80;;;3.80;;
39454;SDS011;25155;41.890;23.446;2023-07-31T14:02:02;4.65;;;3.65;;
39454;SDS011;25155;41.890;23.446;2023-07-31T14:04:30;4.68;;;3.28;;
39454;SDS011;25155;41.890;23.446;2023-07-31T14:06:57;5.22;;;3.63;;
39454;SDS011;25155;41.890;23.446;2023-07-31T14:09:24;5.22;;;3.90;;
39454;SDS011;25155;41.890;23.446;2023-07-31T14:11:53;4.70;;;3.53;;
39454;SDS011;25155;41.890;23.446;2023-07-31T14:14:20;4.72;;;4.10;;
39454;SDS011;25155;41.890;23.446;2023-07-31T14:16:47;5.43;;;4.45;;
39454;SDS011;25155;41.890;23.446;2023-07-31T14:19:14;5.00;;;4.30;;
39454;SDS011;25155;41.890;23.446;2023-07-31T14:21:41;4.35;;;3.38;;
39454;SDS011;25155;41.890;23.446;2023-07-31T14:24:08;4.85;;;4.07;;
39454;SDS011;25155;41.890;23.446;2023-07-31T14:26:35;4.25;;;2.70;;
39454;SDS011;25155;41.890;23.446;2023-07-31T14:29:04;5.30;;;4.40;;
39454;SDS011;25155;41.890;23.446;2023-07-31T14:31:31;3.78;;;2.90;;
39454;SDS011;25155;41.890;23.446;2023-07-31T14:33:58;4.20;;;2.88;;
39454;SDS011;25155;41.890;23.446;2023-07-31T14:36:25;3.08;;;2.40;;